Artesia Wells, Texas
Current Conditions -  °F | °C
As of 12:53 PM on Friday 31 Oct 2014 (Local Time) from KCOT Reporting Station
Overcast Overcast  
Wind Chill: 24°   Ceiling: 6000
Heat Index: 24°   Visibility: 10mi
Dew Point: 10°   Wind: 16mph
Humidity: 40%   Direction: 60°ENE
Pressure: 30.26"   Gusts: NA
Location:  28.28°N, 99.29°W
Report Text: KCOT 311753Z AUTO 06014KT 10SM OVC060 24/10 A3026 RMK AO2 SLP241 60010 T02440100 10244 20183 50006
Loading
Personal Weather Stations






























Interactive Weather Map
Tropical Storm Tracking
New forecast layout! Learn more

10-Day Weather Forecast

Advertisements
Track Severe Weather on mobile